Mineral Springs, Pennsylvania
Current Conditions -  °F | °C
As of 1:54 AM on Sunday 26 Oct 2014 (Local Time) from KFIG Reporting Station
Clear Clear  
Wind Chill: 53°   Ceiling: Unl
Heat Index: 53°   Visibility: 10mi
Dew Point: 34°   Wind: 12mph
Humidity: 48%   Direction: 310°NW
Pressure: 29.72"   Gusts: 29mph
Location:  41°N, 78.36°W
Report Text: KFIG 260554Z AUTO 31010G25KT 10SM CLR 12/01 A2972 RMK AO2 PK WND 33033/0501 SLP062 T01170011 10161 20117 53010
Loading
Personal Weather Stations






























Interactive Weather Map
Tropical Storm Tracking
New forecast layout! Learn more

10-Day Weather Forecast

Advertisements
Track Severe Weather on mobile